Time;durP1;ratioP1;P1;durP2;ratioP2;P2;SDS_P1;SDS_P2;PMS_P1;PMS_P2;Temp;Humidity;BMP_temperature;BMP_pressure;BME280_temperature;BME280_humidity;BME280_pressure;Samples;Min_cycle;Max_cycle;Signal;HPM_P1;HPM_P2
2021/01/20 00:02:04;;;;;;;25.17;13.88;;;7.80;91.80;;;;;;4991411;28;20034;-55
2021/01/20 00:04:30;;;;;;;17.50;11.82;;;7.80;92.00;;;;;;4991717;28;20051;-59
2021/01/20 00:06:56;;;;;;;21.48;11.80;;;7.80;92.00;;;;;;4991065;28;20049;-58
2021/01/20 00:09:22;;;;;;;18.80;11.93;;;7.70;92.10;;;;;;4974195;28;20126;-55
2021/01/20 00:11:48;;;;;;;18.50;12.13;;;7.70;91.90;;;;;;4990598;28;20042;-56
2021/01/20 00:14:14;;;;;;;20.80;13.43;;;7.70;91.90;;;;;;4991693;28;20046;-58
2021/01/20 00:16:40;;;;;;;16.42;12.30;;;7.70;91.80;;;;;;4990187;28;20039;-56
2021/01/20 00:19:07;;;;;;;20.10;11.60;;;7.70;91.80;;;;;;4990072;28;20057;-57
2021/01/20 00:21:33;;;;;;;19.75;11.45;;;7.80;92.10;;;;;;4996130;28;20061;-59
2021/01/20 00:23:59;;;;;;;18.52;12.20;;;7.80;91.50;;;;;;4989743;28;20105;-55
2021/01/20 00:26:24;;;;;;;16.60;11.30;;;7.80;91.70;;;;;;4997591;28;20469;-56
2021/01/20 00:28:50;;;;;;;18.75;11.82;;;7.80;91.40;;;;;;4990972;28;20042;-56
2021/01/20 00:31:16;;;;;;;17.48;11.23;;;7.80;91.30;;;;;;4994222;28;20100;-56
2021/01/20 00:33:41;;;;;;;22.88;12.30;;;7.80;91.60;;;;;;4989604;28;20050;-58
2021/01/20 00:36:08;;;;;;;20.65;12.43;;;7.80;91.70;;;;;;4991001;28;20113;-55
2021/01/20 00:38:34;;;;;;;22.60;12.07;;;7.80;91.50;;;;;;4990163;28;20050;-59
2021/01/20 00:40:59;;;;;;;19.95;12.07;;;7.70;91.60;;;;;;4991153;28;20418;-58
2021/01/20 00:43:25;;;;;;;18.67;11.93;;;7.70;91.60;;;;;;4995684;28;20054;-56
2021/01/20 00:45:51;;;;;;;27.45;12.68;;;7.70;91.70;;;;;;4989180;28;20096;-55
2021/01/20 00:48:16;;;;;;;19.95;12.70;;;7.70;91.70;;;;;;4990499;28;20399;-52
2021/01/20 00:50:42;;;;;;;19.23;12.35;;;7.60;91.80;;;;;;4991391;28;20047;-56
2021/01/20 00:53:07;;;;;;;20.10;12.88;;;7.80;91.40;;;;;;4989837;28;20387;-56
2021/01/20 00:55:33;;;;;;;18.05;12.48;;;7.70;91.50;;;;;;4991035;28;20053;-58
2021/01/20 00:57:59;;;;;;;18.88;11.68;;;7.70;91.60;;;;;;4990771;28;20487;-55
2021/01/20 01:00:24;;;;;;;22.33;12.55;;;7.70;91.60;;;;;;4990013;28;20030;-58
2021/01/20 01:02:50;;;;;;;19.75;11.85;;;7.70;91.60;;;;;;4990577;28;20057;-59
2021/01/20 01:05:17;;;;;;;19.48;12.10;;;7.70;91.70;;;;;;4990158;28;20062;-58
2021/01/20 01:07:42;;;;;;;16.73;11.48;;;7.70;91.50;;;;;;4990346;28;20038;-56
2021/01/20 01:10:08;;;;;;;19.80;12.45;;;7.80;91.10;;;;;;4990347;28;20038;-59
2021/01/20 01:12:35;;;;;;;21.08;12.40;;;7.80;91.30;;;;;;4989702;28;20491;-58
2021/01/20 01:15:01;;;;;;;18.60;10.95;;;7.70;91.50;;;;;;4990708;28;20042;-55
2021/01/20 01:17:26;;;;;;;18.58;12.23;;;7.70;91.30;;;;;;4990746;28;20049;-58
2021/01/20 01:19:52;;;;;;;20.10;11.43;;;7.70;91.40;;;;;;4990267;28;20041;-58
2021/01/20 01:22:18;;;;;;;18.45;12.40;;;7.70;91.40;;;;;;4990013;28;20065;-55
2021/01/20 01:24:43;;;;;;;17.63;12.50;;;7.70;91.60;;;;;;4990207;28;20038;-55
2021/01/20 01:27:09;;;;;;;18.88;12.00;;;7.70;91.30;;;;;;4989701;28;20209;-58
2021/01/20 01:29:34;;;;;;;17.35;12.40;;;7.70;91.10;;;;;;4989777;28;20034;-56
2021/01/20 01:32:00;;;;;;;17.67;11.25;;;7.70;91.20;;;;;;4988656;28;20479;-56
2021/01/20 01:34:25;;;;;;;18.77;11.98;;;7.70;91.10;;;;;;4990279;28;20056;-54
2021/01/20 01:36:51;;;;;;;21.05;12.20;;;7.60;91.00;;;;;;4993330;28;20111;-56
2021/01/20 01:39:17;;;;;;;19.52;11.60;;;7.80;90.90;;;;;;4990899;28;20038;-55
2021/01/20 01:41:42;;;;;;;20.52;12.88;;;7.70;90.90;;;;;;4989844;28;20558;-54
2021/01/20 01:44:08;;;;;;;17.58;11.65;;;7.70;91.10;;;;;;4990255;28;20069;-55
2021/01/20 01:46:34;;;;;;;22.10;12.68;;;7.70;91.00;;;;;;4989467;28;20157;-53
2021/01/20 01:49:00;;;;;;;22.83;12.05;;;7.70;91.00;;;;;;4990448;28;20045;-54
2021/01/20 01:51:26;;;;;;;16.90;11.75;;;7.70;90.90;;;;;;4989684;28;20088;-55
2021/01/20 01:53:53;;;;;;;22.85;13.02;;;7.70;91.00;;;;;;4990083;28;20129;-55
2021/01/20 01:56:19;;;;;;;22.80;12.07;;;7.70;91.10;;;;;;4990461;28;20047;-53
2021/01/20 01:58:49;;;;;;;18.00;11.82;;;7.70;91.40;;;;;;4988710;28;20050;-53
2021/01/20 02:01:16;;;;;;;21.65;12.23;;;7.60;91.00;;;;;;4985627;28;20050;-57
2021/01/20 02:03:42;;;;;;;18.10;11.23;;;7.60;91.30;;;;;;4989049;28;20522;-55
2021/01/20 02:06:08;;;;;;;19.63;12.30;;;7.60;91.20;;;;;;4993763;28;20047;-58
2021/01/20 02:08:34;;;;;;;21.92;12.02;;;7.60;91.20;;;;;;4986152;28;20053;-56
2021/01/20 02:11:11;;;;;;;19.10;11.77;;;7.60;91.10;;;;;;4989515;28;20149;-54
2021/01/20 02:13:51;;;;;;;20.58;12.75;;;7.60;91.10;;;;;;4986861;28;20565;-55
2021/01/20 02:16:23;;;;;;;22.20;11.10;;;7.80;90.70;;;;;;4982738;28;20041;-54
2021/01/20 02:18:51;;;;;;;19.85;11.98;;;7.70;90.80;;;;;;4992899;28;20109;-56
2021/01/20 02:21:35;;;;;;;18.95;11.05;;;7.60;91.10;;;;;;4997782;28;20117;-56
2021/01/20 02:24:05;;;;;;;19.80;11.80;;;7.60;91.20;;;;;;4991549;28;20133;-55
2021/01/20 02:26:47;;;;;;;21.63;12.52;;;7.60;91.00;;;;;;4992921;28;20089;-54
2021/01/20 02:29:37;;;;;;;19.70;12.35;;;7.60;91.40;;;;;;4987751;28;20049;-54
2021/01/20 02:32:06;;;;;;;24.15;12.55;;;7.50;91.30;;;;;;4990834;28;20034;-54
2021/01/20 02:34:34;;;;;;;19.38;12.32;;;7.40;91.30;;;;;;4993568;28;20046;-53
2021/01/20 02:37:03;;;;;;;19.05;11.45;;;7.50;91.40;;;;;;5011064;23;20060;-53
2021/01/20 02:39:30;;;;;;;18.08;12.48;;;7.50;91.30;;;;;;4982322;28;20042;-54
2021/01/20 02:42:05;;;;;;;20.30;11.23;;;7.40;91.30;;;;;;5010133;28;20069;-51
2021/01/20 02:44:39;;;;;;;19.85;12.05;;;7.50;91.30;;;;;;4995858;28;20486;-54
2021/01/20 02:47:07;;;;;;;20.42;12.02;;;7.50;91.30;;;;;;5008963;28;20042;-53
2021/01/20 02:49:34;;;;;;;19.38;11.30;;;7.50;91.30;;;;;;5011544;28;20125;-56
2021/01/20 02:52:18;;;;;;;22.05;10.90;;;7.50;91.50;;;;;;5010640;28;20041;-55
2021/01/20 02:54:46;;;;;;;20.35;11.43;;;7.50;91.40;;;;;;5001613;28;20065;-53
2021/01/20 02:57:12;;;;;;;17.50;11.45;;;7.50;91.40;;;;;;5002776;28;20387;-52
2021/01/20 02:59:38;;;;;;;18.73;11.60;;;7.50;91.30;;;;;;5002575;28;20045;-53
2021/01/20 03:02:13;;;;;;;21.38;11.48;;;7.50;91.30;;;;;;5000612;28;20058;-51
2021/01/20 03:04:44;;;;;;;22.98;12.65;;;7.50;91.50;;;;;;5008327;28;20426;-51
2021/01/20 03:07:09;;;;;;;18.55;12.00;;;7.50;91.50;;;;;;5006536;28;20092;-53
2021/01/20 03:09:36;;;;;;;19.35;11.18;;;7.40;91.70;;;;;;5012215;28;20478;-54
2021/01/20 03:12:04;;;;;;;18.95;11.38;;;7.40;91.60;;;;;;5010687;28;20379;-54
2021/01/20 03:14:32;;;;;;;22.23;12.68;;;7.50;91.60;;;;;;4987890;28;20062;-52
2021/01/20 03:16:59;;;;;;;21.88;11.57;;;7.50;91.60;;;;;;5007328;28;20057;-55
2021/01/20 03:19:25;;;;;;;21.70;12.27;;;7.40;91.50;;;;;;4977364;28;20046;-54
2021/01/20 03:21:50;;;;;;;21.60;11.65;;;7.40;91.70;;;;;;5009660;28;20125;-53
2021/01/20 03:24:16;;;;;;;21.17;11.43;;;7.30;91.80;;;;;;5003105;28;20038;-54
2021/01/20 03:26:42;;;;;;;22.08;11.73;;;7.30;91.80;;;;;;5005403;28;20045;-54
2021/01/20 03:29:07;;;;;;;20.40;11.23;;;7.40;91.60;;;;;;5001015;28;20042;-53
2021/01/20 03:31:33;;;;;;;21.65;10.88;;;7.30;91.70;;;;;;4990984;28;20211;-52
2021/01/20 03:33:58;;;;;;;16.65;10.27;;;7.30;91.70;;;;;;5007745;28;20048;-53
2021/01/20 03:36:25;;;;;;;19.17;11.10;;;7.30;91.60;;;;;;5004345;28;20460;-54
2021/01/20 03:38:51;;;;;;;19.55;10.70;;;7.40;91.60;;;;;;5000312;28;20110;-55
2021/01/20 03:41:17;;;;;;;17.63;10.15;;;7.40;91.50;;;;;;5010159;28;20477;-53
2021/01/20 03:43:42;;;;;;;20.40;10.93;;;7.40;91.30;;;;;;5004858;28;20084;-54
2021/01/20 03:46:08;;;;;;;20.77;11.18;;;7.50;91.30;;;;;;5011938;28;20129;-56
2021/01/20 03:48:34;;;;;;;17.35;10.55;;;7.50;91.30;;;;;;5002845;28;20048;-54
2021/01/20 03:50:59;;;;;;;18.33;10.10;;;7.50;91.20;;;;;;5002301;28;20057;-52
2021/01/20 03:53:25;;;;;;;16.52;10.98;;;7.50;91.20;;;;;;5007848;28;20065;-54
2021/01/20 03:55:51;;;;;;;17.05;11.00;;;7.40;91.40;;;;;;5003461;28;20040;-54
2021/01/20 03:58:16;;;;;;;17.35;10.27;;;7.50;91.40;;;;;;5004771;28;20451;-59
2021/01/20 04:00:42;;;;;;;18.60;11.32;;;7.40;91.50;;;;;;5009944;28;20048;-53
2021/01/20 04:03:08;;;;;;;19.48;10.40;;;7.40;91.60;;;;;;5002836;28;20046;-54
2021/01/20 04:05:33;;;;;;;19.92;10.32;;;7.40;91.80;;;;;;5008816;28;20104;-51
2021/01/20 04:07:59;;;;;;;20.30;11.15;;;7.50;91.40;;;;;;5003736;28;20065;-54
2021/01/20 04:10:24;;;;;;;15.82;10.23;;;7.40;91.60;;;;;;4999096;28;20040;-58
2021/01/20 04:12:50;;;;;;;17.65;10.40;;;7.50;91.40;;;;;;5005900;28;20099;-53
2021/01/20 04:15:16;;;;;;;17.50;10.48;;;7.50;91.30;;;;;;4997487;28;20544;-54
2021/01/20 04:17:42;;;;;;;19.67;10.88;;;7.50;91.50;;;;;;4995155;28;20037;-55
2021/01/20 04:20:08;;;;;;;17.95;10.13;;;7.50;91.50;;;;;;5002063;28;20129;-54
2021/01/20 04:22:34;;;;;;;18.23;10.30;;;7.50;91.60;;;;;;4997043;28;20089;-53
2021/01/20 04:25:00;;;;;;;18.17;10.02;;;7.60;91.60;;;;;;5003054;28;20126;-55
2021/01/20 04:27:26;;;;;;;20.25;10.15;;;7.60;91.10;;;;;;5006210;28;20042;-54
2021/01/20 04:29:52;;;;;;;16.17;9.90;;;7.60;91.40;;;;;;4998310;28;20121;-54
2021/01/20 04:32:18;;;;;;;19.38;10.63;;;7.50;91.50;;;;;;4998968;28;20056;-56
2021/01/20 04:34:43;;;;;;;17.17;10.77;;;7.60;91.70;;;;;;4999463;28;20053;-57
2021/01/20 04:37:09;;;;;;;19.23;10.75;;;7.60;91.50;;;;;;5008537;28;20061;-57
2021/01/20 04:39:34;;;;;;;19.75;11.65;;;7.60;91.80;;;;;;5010061;28;20053;-58
2021/01/20 04:42:00;;;;;;;16.65;10.95;;;7.60;91.80;;;;;;5005387;28;20049;-58
2021/01/20 04:44:26;;;;;;;17.17;10.75;;;7.50;91.80;;;;;;5005036;28;20113;-55
2021/01/20 04:46:52;;;;;;;20.23;11.13;;;7.50;92.00;;;;;;5000890;28;20161;-58
2021/01/20 04:49:19;;;;;;;15.68;9.73;;;7.50;91.80;;;;;;5009403;28;20162;-55
2021/01/20 04:51:49;;;;;;;14.82;9.73;;;7.60;91.60;;;;;;5005141;28;20038;-55
2021/01/20 04:54:16;;;;;;;14.48;9.43;;;7.60;91.70;;;;;;5010365;28;20533;-52
2021/01/20 04:56:42;;;;;;;16.50;10.65;;;7.60;91.60;;;;;;5001003;28;20477;-59
2021/01/20 04:59:08;;;;;;;15.52;10.27;;;7.70;91.50;;;;;;4990286;28;20041;-56
2021/01/20 05:01:35;;;;;;;16.27;8.63;;;7.60;91.70;;;;;;5007851;28;20065;-59
2021/01/20 05:04:02;;;;;;;21.02;11.30;;;7.60;91.70;;;;;;5005705;28;20041;-56
2021/01/20 05:06:30;;;;;;;16.35;9.88;;;7.60;91.40;;;;;;5006570;28;20037;-57
2021/01/20 05:08:57;;;;;;;14.57;9.48;;;7.70;91.10;;;;;;4987054;28;20509;-56
2021/01/20 05:11:43;;;;;;;18.83;10.13;;;7.70;91.30;;;;;;4998871;28;20077;-55
2021/01/20 05:14:16;;;;;;;17.13;9.45;;;7.70;91.30;;;;;;5002194;28;20434;-53
2021/01/20 05:16:46;;;;;;;15.40;9.13;;;7.70;91.30;;;;;;5001323;28;20042;-56
2021/01/20 05:19:11;;;;;;;17.95;9.73;;;7.60;91.40;;;;;;5001728;28;20521;-55
2021/01/20 05:21:37;;;;;;;15.25;9.65;;;7.60;91.60;;;;;;5008549;28;20502;-61
2021/01/20 05:24:19;;;;;;;14.77;8.90;;;7.70;91.40;;;;;;5003008;28;20042;-58
2021/01/20 05:26:46;;;;;;;13.18;9.10;;;7.70;91.20;;;;;;5005427;28;20037;-53
2021/01/20 05:29:13;;;;;;;14.90;8.85;;;7.70;91.30;;;;;;5006181;28;20038;-52
2021/01/20 05:31:40;;;;;;;11.73;7.80;;;7.70;91.40;;;;;;5008178;28;20046;-55
2021/01/20 05:34:21;;;;;;;13.85;8.63;;;7.70;91.50;;;;;;5004422;28;20113;-55
2021/01/20 05:37:07;;;;;;;14.13;7.95;;;7.70;91.40;;;;;;5000604;28;20129;-52
2021/01/20 05:39:34;;;;;;;13.55;7.75;;;7.70;91.20;;;;;;5002073;28;20048;-57
2021/01/20 05:42:06;;;;;;;12.23;7.38;;;7.80;91.30;;;;;;5001023;28;20113;-56
2021/01/20 05:44:32;;;;;;;13.73;7.60;;;7.80;91.00;;;;;;5005737;28;20030;-52
2021/01/20 05:47:05;;;;;;;14.57;8.05;;;7.80;90.80;;;;;;5003644;28;20047;-60
2021/01/20 05:49:31;;;;;;;12.60;7.30;;;7.80;90.70;;;;;;4995380;28;20070;-54
2021/01/20 05:51:57;;;;;;;13.75;8.15;;;7.80;90.80;;;;;;5005466;28;20088;-59
2021/01/20 05:54:36;;;;;;;12.77;7.60;;;7.80;90.80;;;;;;5005807;28;20050;-55
2021/01/20 05:57:21;;;;;;;13.82;7.40;;;7.80;90.90;;;;;;5002430;28;20044;-59
2021/01/20 05:59:50;;;;;;;11.43;7.13;;;7.80;90.80;;;;;;5007117;28;20248;-56
2021/01/20 06:02:18;;;;;;;14.30;7.22;;;7.80;90.90;;;;;;5006606;28;20038;-54
2021/01/20 06:04:44;;;;;;;11.57;7.15;;;7.80;91.00;;;;;;5007269;28;20045;-57
2021/01/20 06:07:11;;;;;;;14.35;7.25;;;7.90;90.70;;;;;;5011976;28;20421;-55
2021/01/20 06:09:39;;;;;;;10.63;6.88;;;7.80;90.70;;;;;;5009528;28;20542;-53
2021/01/20 06:12:09;;;;;;;15.10;7.63;;;7.80;90.70;;;;;;5012166;28;20034;-55
2021/01/20 06:14:36;;;;;;;15.82;8.07;;;7.80;90.80;;;;;;5001575;28;20038;-55
2021/01/20 06:17:16;;;;;;;13.27;7.53;;;7.80;90.90;;;;;;5003606;28;20046;-55
2021/01/20 06:19:46;;;;;;;13.75;7.57;;;7.90;90.50;;;;;;5010114;28;20042;-55
2021/01/20 06:22:17;;;;;;;14.05;8.02;;;7.90;90.60;;;;;;5008065;28;20125;-53
2021/01/20 06:24:52;;;;;;;13.32;8.05;;;7.90;90.40;;;;;;5009399;28;20050;-57
2021/01/20 06:27:24;;;;;;;11.80;7.07;;;7.90;90.40;;;;;;5010386;28;20056;-55
2021/01/20 06:30:02;;;;;;;14.50;8.07;;;7.90;90.60;;;;;;5005475;28;20504;-54
2021/01/20 06:32:28;;;;;;;12.43;6.97;;;7.90;90.50;;;;;;5006883;28;20045;-55
2021/01/20 06:34:55;;;;;;;14.05;7.97;;;8.00;90.50;;;;;;5006424;28;20046;-55
2021/01/20 06:37:38;;;;;;;13.98;7.65;;;7.90;90.70;;;;;;5008667;28;20037;-54
2021/01/20 06:40:26;;;;;;;16.67;8.05;;;7.90;90.80;;;;;;5002411;28;20066;-55
2021/01/20 06:42:54;;;;;;;11.95;7.57;;;7.90;90.70;;;;;;5010368;28;20033;-59
2021/01/20 06:45:22;;;;;;;13.80;7.88;;;7.90;90.90;;;;;;5000760;28;20038;-55
2021/01/20 06:47:59;;;;;;;12.82;7.80;;;8.00;90.90;;;;;;5004771;28;20088;-53
2021/01/20 06:50:30;;;;;;;12.82;7.68;;;7.90;90.80;;;;;;5010771;28;20038;-56
2021/01/20 06:53:07;;;;;;;11.18;7.68;;;8.00;90.50;;;;;;5012004;28;20044;-56
2021/01/20 06:55:37;;;;;;;14.35;7.60;;;8.10;90.50;;;;;;5012496;28;20034;-55
2021/01/20 06:58:24;;;;;;;11.65;6.93;;;8.10;90.60;;;;;;5011965;28;20045;-57
2021/01/20 07:00:58;;;;;;;14.02;7.25;;;8.10;90.40;;;;;;5009774;28;20038;-55
2021/01/20 07:03:44;;;;;;;10.63;6.85;;;8.20;90.40;;;;;;5009817;28;20057;-56
2021/01/20 07:06:33;;;;;;;11.73;7.03;;;8.10;90.50;;;;;;5008541;28;20045;-55
2021/01/20 07:09:11;;;;;;;11.27;7.00;;;8.10;90.30;;;;;;5011348;28;20053;-62
2021/01/20 07:11:55;;;;;;;9.63;6.30;;;8.20;90.30;;;;;;5012535;28;20134;-55
2021/01/20 07:14:30;;;;;;;12.88;7.22;;;8.20;90.20;;;;;;5006419;28;20176;-59
2021/01/20 07:16:57;;;;;;;11.68;6.65;;;8.20;90.40;;;;;;5007258;28;20561;-55
2021/01/20 07:19:25;;;;;;;9.25;6.13;;;8.20;90.50;;;;;;5010515;28;20045;-57
2021/01/20 07:21:52;;;;;;;11.57;7.03;;;8.10;90.60;;;;;;5000892;28;20038;-55
2021/01/20 07:24:18;;;;;;;13.50;6.85;;;8.10;90.30;;;;;;5008952;28;20046;-57
2021/01/20 07:26:45;;;;;;;11.00;6.47;;;8.10;90.40;;;;;;5005292;28;20430;-57
2021/01/20 07:29:15;;;;;;;10.88;6.32;;;8.20;90.50;;;;;;5010741;28;20037;-57
2021/01/20 07:31:47;;;;;;;10.90;6.05;;;8.10;90.50;;;;;;5009695;28;20793;-62
2021/01/20 07:34:13;;;;;;;10.52;6.57;;;8.10;90.70;;;;;;5011769;28;20049;-56
2021/01/20 07:36:39;;;;;;;9.13;6.25;;;8.10;90.30;;;;;;5011257;28;20486;-59
2021/01/20 07:39:25;;;;;;;10.60;6.10;;;8.10;90.70;;;;;;5011925;28;20036;-55
2021/01/20 07:41:58;;;;;;;12.52;6.68;;;8.10;90.60;;;;;;5010631;28;20029;-55
2021/01/20 07:44:25;;;;;;;12.00;6.38;;;8.10;90.60;;;;;;5010007;28;20140;-58
2021/01/20 07:47:08;;;;;;;9.10;6.35;;;8.10;90.60;;;;;;5007881;28;20076;-56
2021/01/20 07:49:34;;;;;;;9.95;5.82;;;8.10;90.40;;;;;;5010300;28;20042;-56
2021/01/20 07:52:04;;;;;;;10.75;6.38;;;8.20;90.20;;;;;;5010716;28;20068;-59
2021/01/20 07:54:48;;;;;;;12.57;6.32;;;8.20;90.30;;;;;;5012075;28;20042;-58
2021/01/20 07:57:21;;;;;;;12.93;6.18;;;8.10;90.40;;;;;;5005212;28;20038;-60
2021/01/20 08:00:08;;;;;;;9.65;6.10;;;8.20;90.40;;;;;;5011259;28;20076;-56
2021/01/20 08:02:44;;;;;;;12.68;6.22;;;8.20;90.30;;;;;;5001329;28;20174;-61
2021/01/20 08:05:10;;;;;;;9.80;5.82;;;8.20;90.30;;;;;;5012562;28;20038;-57
2021/01/20 08:07:36;;;;;;;11.00;6.88;;;8.20;90.10;;;;;;5012636;28;20060;-56
2021/01/20 08:10:02;;;;;;;11.40;6.30;;;8.20;90.10;;;;;;5000555;28;20410;-57
2021/01/20 08:12:30;;;;;;;11.90;6.05;;;8.20;90.30;;;;;;5010643;28;20089;-56
2021/01/20 08:14:57;;;;;;;10.00;5.80;;;8.30;90.10;;;;;;5010610;28;20099;-56
2021/01/20 08:17:23;;;;;;;12.85;6.18;;;8.30;90.00;;;;;;5011717;28;20045;-58
2021/01/20 08:19:53;;;;;;;11.38;6.20;;;8.30;90.00;;;;;;5012187;28;20045;-58
2021/01/20 08:22:19;;;;;;;10.65;5.30;;;8.30;90.00;;;;;;5007908;28;20115;-57
2021/01/20 08:24:46;;;;;;;11.60;5.78;;;8.30;90.00;;;;;;5011633;28;20490;-56
2021/01/20 08:27:12;;;;;;;9.65;5.30;;;8.30;90.10;;;;;;5009271;28;20636;-54
2021/01/20 08:29:51;;;;;;;8.23;5.60;;;8.40;90.00;;;;;;5004739;28;20069;-58
2021/01/20 08:32:20;;;;;;;10.48;5.75;;;8.40;89.20;;;;;;5009357;28;20052;-56
2021/01/20 08:34:49;;;;;;;10.60;5.57;;;8.40;89.40;;;;;;4987908;28;20038;-56
2021/01/20 08:37:23;;;;;;;9.90;5.45;;;8.40;89.00;;;;;;5009978;28;20112;-57
2021/01/20 08:40:03;;;;;;;8.15;5.60;;;8.40;89.80;;;;;;5011179;28;20041;-52
2021/01/20 08:42:35;;;;;;;8.98;5.72;;;8.40;89.20;;;;;;5001106;28;20446;-57
2021/01/20 08:45:13;;;;;;;7.13;4.63;;;8.40;89.30;;;;;;5007598;28;20406;-58
2021/01/20 08:47:44;;;;;;;9.75;5.43;;;8.50;89.00;;;;;;4999221;28;20509;-58
2021/01/20 08:50:12;;;;;;;10.45;4.80;;;8.50;89.20;;;;;;5009606;28;20033;-58
2021/01/20 08:52:51;;;;;;;8.48;5.20;;;8.40;90.10;;;;;;5002540;28;20074;-58
2021/01/20 08:55:33;;;;;;;9.35;5.03;;;8.50;89.30;;;;;;5008844;28;20085;-57
2021/01/20 08:58:15;;;;;;;7.40;4.85;;;8.50;89.50;;;;;;5007225;28;20132;-58
2021/01/20 09:00:42;;;;;;;7.27;4.90;;;8.50;89.50;;;;;;5006127;28;20066;-58
2021/01/20 09:03:14;;;;;;;7.40;5.10;;;8.50;89.70;;;;;;5009513;28;20525;-58
2021/01/20 09:05:40;;;;;;;10.32;5.53;;;8.60;89.40;;;;;;5011023;28;20042;-58
2021/01/20 09:08:06;;;;;;;8.00;4.90;;;8.60;89.60;;;;;;5003315;28;20044;-57
2021/01/20 09:10:31;;;;;;;8.43;4.85;;;8.70;89.00;;;;;;5008359;28;20038;-57
2021/01/20 09:12:57;;;;;;;6.95;4.70;;;8.60;88.90;;;;;;4995202;28;20092;-57
2021/01/20 09:15:22;;;;;;;8.82;4.93;;;8.70;89.10;;;;;;5002804;28;20487;-58
2021/01/20 09:17:48;;;;;;;6.95;5.10;;;8.70;89.20;;;;;;5004302;28;20137;-58
2021/01/20 09:20:14;;;;;;;7.80;5.28;;;8.70;89.20;;;;;;4999061;28;20494;-58
2021/01/20 09:22:40;;;;;;;8.00;4.78;;;8.80;89.10;;;;;;5004955;28;20085;-57
2021/01/20 09:25:06;;;;;;;9.95;4.95;;;8.80;88.90;;;;;;5003955;28;20092;-54
2021/01/20 09:27:32;;;;;;;9.30;5.07;;;8.80;88.90;;;;;;5011794;28;20052;-52
2021/01/20 09:29:58;;;;;;;8.65;5.03;;;8.90;88.40;;;;;;4999093;28;20441;-57
2021/01/20 09:32:25;;;;;;;7.53;4.50;;;8.80;88.80;;;;;;5015155;28;20085;-56
2021/01/20 09:34:50;;;;;;;8.23;5.15;;;8.80;88.90;;;;;;5006934;28;20092;-58
2021/01/20 09:37:16;;;;;;;8.55;4.60;;;8.80;88.90;;;;;;5016880;28;20037;-58
2021/01/20 09:39:42;;;;;;;8.48;5.07;;;8.80;89.20;;;;;;5015599;28;20041;-57
2021/01/20 09:42:08;;;;;;;7.15;4.40;;;8.90;89.10;;;;;;4999542;28;20041;-57
2021/01/20 09:44:33;;;;;;;10.15;4.80;;;8.90;88.40;;;;;;5016537;28;20107;-57
2021/01/20 09:47:01;;;;;;;8.05;4.88;;;8.90;88.60;;;;;;5016786;28;20088;-57
2021/01/20 09:49:27;;;;;;;8.98;5.00;;;8.80;89.10;;;;;;5011780;28;20043;-57
2021/01/20 09:51:52;;;;;;;5.50;3.58;;;8.90;89.20;;;;;;5011975;28;20049;-56
2021/01/20 09:54:18;;;;;;;7.60;4.53;;;8.90;89.30;;;;;;5008108;28;20104;-57
2021/01/20 09:56:43;;;;;;;7.40;4.55;;;9.00;89.10;;;;;;5015581;28;20049;-57
2021/01/20 09:59:09;;;;;;;8.35;4.60;;;8.90;89.60;;;;;;5017270;28;20041;-58
2021/01/20 10:01:35;;;;;;;7.97;4.13;;;9.00;89.60;;;;;;5016418;28;20041;-58
2021/01/20 10:04:01;;;;;;;8.45;4.57;;;9.10;89.30;;;;;;5006837;28;20116;-57
2021/01/20 10:06:26;;;;;;;8.30;4.32;;;9.10;89.60;;;;;;5006223;28;20109;-58
2021/01/20 10:08:52;;;;;;;8.23;4.50;;;9.20;89.60;;;;;;5014437;28;20406;-57
2021/01/20 10:11:18;;;;;;;7.47;4.60;;;9.20;89.60;;;;;;5016384;28;20116;-58
2021/01/20 10:13:43;;;;;;;6.40;3.97;;;9.20;89.50;;;;;;5015658;28;20046;-58
2021/01/20 10:16:09;;;;;;;5.97;4.15;;;9.20;89.50;;;;;;5010962;28;20069;-58
2021/01/20 10:18:35;;;;;;;7.45;4.43;;;9.20;89.10;;;;;;5001640;28;20044;-58
2021/01/20 10:21:01;;;;;;;8.48;3.70;;;9.20;89.20;;;;;;5011910;28;20038;-58
2021/01/20 10:23:27;;;;;;;5.63;3.70;;;9.30;89.20;;;;;;4992357;28;20046;-58
2021/01/20 10:25:53;;;;;;;5.60;3.53;;;9.20;89.20;;;;;;5013689;28;20124;-58
2021/01/20 10:28:18;;;;;;;6.18;3.95;;;9.30;89.10;;;;;;5016738;28;20045;-58
2021/01/20 10:30:44;;;;;;;9.98;3.70;;;9.20;89.30;;;;;;5015879;28;20037;-58
2021/01/20 10:33:10;;;;;;;8.35;3.60;;;9.20;89.40;;;;;;5016455;28;20034;-58
2021/01/20 10:35:36;;;;;;;7.53;3.80;;;9.20;89.40;;;;;;5016390;28;20038;-57
2021/01/20 10:38:02;;;;;;;5.43;3.25;;;9.30;89.10;;;;;;5013501;28;20087;-58
2021/01/20 10:40:28;;;;;;;6.20;3.33;;;9.30;89.00;;;;;;5010362;28;20089;-58
2021/01/20 10:42:53;;;;;;;4.97;3.38;;;9.40;87.80;;;;;;5012654;28;20092;-55
2021/01/20 10:45:19;;;;;;;7.03;3.40;;;9.30;88.50;;;;;;5006630;28;20038;-55
2021/01/20 10:47:46;;;;;;;8.13;3.63;;;9.30;88.30;;;;;;5002933;28;20415;-54
2021/01/20 10:50:13;;;;;;;8.25;3.10;;;9.30;88.20;;;;;;4995126;28;20096;-56
2021/01/20 10:52:39;;;;;;;7.22;3.45;;;9.30;88.50;;;;;;5013452;28;20042;-57
2021/01/20 10:55:05;;;;;;;4.70;3.03;;;9.40;87.60;;;;;;5009057;28;20152;-57
2021/01/20 10:57:30;;;;;;;7.45;3.20;;;9.40;87.40;;;;;;5012174;28;20041;-56
2021/01/20 10:59:56;;;;;;;5.03;3.05;;;9.40;87.60;;;;;;5013088;28;20038;-57
2021/01/20 11:02:22;;;;;;;5.65;2.80;;;9.40;87.50;;;;;;5000200;28;20034;-57
2021/01/20 11:04:48;;;;;;;8.57;2.80;;;9.40;87.20;;;;;;5004913;28;20034;-58
2021/01/20 11:07:14;;;;;;;5.00;2.60;;;9.40;87.10;;;;;;5000186;28;20053;-56
2021/01/20 11:09:39;;;;;;;6.65;2.72;;;9.40;87.20;;;;;;5012973;28;20163;-58
2021/01/20 11:12:05;;;;;;;3.67;2.40;;;9.50;86.70;;;;;;5011347;28;20129;-57
2021/01/20 11:14:32;;;;;;;5.57;3.00;;;9.50;86.40;;;;;;5011444;28;20052;-58
2021/01/20 11:16:58;;;;;;;4.13;2.20;;;9.50;86.30;;;;;;5008725;28;20038;-57
2021/01/20 11:19:25;;;;;;;5.45;2.80;;;9.50;86.00;;;;;;5001311;28;20421;-58
2021/01/20 11:21:52;;;;;;;4.13;2.60;;;9.50;86.00;;;;;;5012092;28;20046;-58
2021/01/20 11:24:18;;;;;;;3.40;2.22;;;9.60;85.10;;;;;;5012171;28;20053;-59
2021/01/20 11:26:47;;;;;;;5.60;2.70;;;9.60;85.60;;;;;;4991752;28;20049;-57
2021/01/20 11:29:14;;;;;;;4.13;2.38;;;9.60;85.20;;;;;;5014094;28;20038;-58
2021/01/20 11:31:40;;;;;;;4.97;2.63;;;9.70;84.10;;;;;;5011624;28;20410;-58
2021/01/20 11:34:06;;;;;;;4.85;2.42;;;9.70;83.60;;;;;;5012580;28;20050;-57
2021/01/20 11:36:31;;;;;;;4.53;2.60;;;9.80;82.80;;;;;;4996008;28;20048;-59
2021/01/20 11:38:57;;;;;;;3.85;2.30;;;9.80;81.80;;;;;;5001930;28;20046;-56
2021/01/20 11:41:23;;;;;;;5.30;2.80;;;9.80;81.10;;;;;;5006464;28;20046;-59
2021/01/20 11:43:49;;;;;;;5.28;2.50;;;9.80;81.70;;;;;;5010848;28;20087;-58
2021/01/20 11:46:15;;;;;;;5.30;2.33;;;9.90;81.60;;;;;;5012511;28;20113;-56
2021/01/20 11:48:42;;;;;;;5.15;2.42;;;9.90;80.40;;;;;;5012497;28;20041;-57
2021/01/20 11:51:08;;;;;;;6.65;2.35;;;10.00;80.20;;;;;;5007767;28;20046;-56
2021/01/20 11:53:33;;;;;;;4.97;2.33;;;10.00;80.50;;;;;;5010574;28;20105;-57
2021/01/20 11:55:59;;;;;;;4.40;2.33;;;10.00;80.80;;;;;;5011492;28;20042;-57
2021/01/20 11:58:24;;;;;;;4.00;2.60;;;10.00;80.40;;;;;;5010983;28;20042;-57
2021/01/20 12:00:50;;;;;;;3.58;2.17;;;10.00;80.40;;;;;;4983989;28;20042;-58
2021/01/20 12:03:16;;;;;;;4.40;2.40;;;9.90;80.90;;;;;;5011371;28;20042;-58
2021/01/20 12:05:42;;;;;;;4.25;2.60;;;10.00;80.90;;;;;;5011936;28;20135;-58
2021/01/20 12:08:07;;;;;;;4.75;2.55;;;10.00;80.50;;;;;;5010702;28;20498;-57
2021/01/20 12:10:33;;;;;;;4.50;2.50;;;10.00;80.00;;;;;;5008847;28;20053;-58
2021/01/20 12:12:59;;;;;;;3.80;2.20;;;10.10;80.10;;;;;;5006869;28;20497;-58
2021/01/20 12:15:24;;;;;;;5.25;2.50;;;10.10;79.80;;;;;;5010886;28;20108;-58
2021/01/20 12:17:50;;;;;;;5.13;2.55;;;10.10;78.80;;;;;;5001529;28;20050;-57
2021/01/20 12:20:16;;;;;;;5.75;2.42;;;10.10;77.90;;;;;;5005427;28;20045;-59
2021/01/20 12:22:42;;;;;;;4.57;2.38;;;10.10;79.40;;;;;;5019520;28;20034;-58
2021/01/20 12:25:08;;;;;;;4.07;2.40;;;10.10;78.90;;;;;;5014679;28;20053;-57
2021/01/20 12:27:37;;;;;;;4.68;2.30;;;10.20;76.30;;;;;;4997461;28;20096;-58
2021/01/20 12:30:03;;;;;;;4.30;2.33;;;10.20;77.10;;;;;;5010587;28;20415;-56
2021/01/20 12:32:29;;;;;;;6.00;2.40;;;10.20;77.70;;;;;;5008089;28;20379;-57
2021/01/20 12:34:55;;;;;;;4.05;2.38;;;10.30;77.40;;;;;;5013742;28;20099;-58
2021/01/20 12:37:20;;;;;;;6.10;2.50;;;10.30;78.00;;;;;;4995393;28;20444;-59
2021/01/20 12:39:46;;;;;;;3.47;2.15;;;10.30;77.10;;;;;;5014060;28;20038;-56
2021/01/20 12:42:12;;;;;;;4.75;2.33;;;10.40;75.20;;;;;;4991026;28;20085;-55
2021/01/20 12:44:39;;;;;;;4.38;2.40;;;10.40;75.80;;;;;;5012037;28;20052;-55
2021/01/20 12:47:05;;;;;;;4.28;2.30;;;10.50;75.10;;;;;;4995149;28;20096;-58
2021/01/20 12:49:31;;;;;;;5.38;2.50;;;10.40;75.30;;;;;;5009738;28;20041;-58
2021/01/20 12:51:56;;;;;;;6.28;2.22;;;10.40;75.60;;;;;;5007031;28;20034;-56